CheckWX is a tool to help pilots better visualize weather data.  It is not intended as a substitute for an official pre-flight weather briefing.

18:33:15 UTC

ZBAA TAF
Beijing Capital International Airport
Beijing, China
TAF ZBAA 171530Z 1718/1818 34004MPS 3500 BR NSC TX03/1807Z TNM07/21Z

Feb-17@
18:00 UTC

Feb-17 @ 18:00 UTC

Feb-18@
18:00 UTC

Feb-18 @ 18:00 UTC

TAF ZBAA 171530Z 1718/1818 34004MPS 3500 BR NSC TX03/1807Z TNM07/21Z
Wind
  • 340° at 8 KTS
Visibility
3,492 meters
Conditions
Mist
Cloud Levels
  • No significant clouds